Time;durP1;ratioP1;P1;durP2;ratioP2;P2;SDS_P1;SDS_P2;PMS_P1;PMS_P2;Temp;Humidity;BMP_temperature;BMP_pressure;BME280_temperature;BME280_humidity;BME280_pressure;Samples;Min_cycle;Max_cycle;Signal;HPM_P1;HPM_P2
2021/08/16 00:01:54;;;;;;;7.67;6.90;;;24.50;1.00;;;;;;5093421;28;20477;-81
2021/08/16 00:04:22;;;;;;;8.03;7.23;;;24.50;1.00;;;;;;5094731;28;20442;-81
2021/08/16 00:06:50;;;;;;;7.50;6.90;;;24.50;1.00;;;;;;5093677;28;20457;-81
2021/08/16 00:09:18;;;;;;;7.03;6.20;;;24.40;1.00;;;;;;5093991;28;20570;-79
2021/08/16 00:11:47;;;;;;;7.83;6.80;;;24.40;28.70;;;;;;5092286;28;20442;-81
2021/08/16 00:14:16;;;;;;;7.03;5.97;;;24.40;1.00;;;;;;5075421;28;20474;-81
2021/08/16 00:16:44;;;;;;;7.17;6.47;;;24.60;99.90;;;;;;5093461;28;20454;-81
2021/08/16 00:19:13;;;;;;;8.37;7.57;;;24.70;99.90;;;;;;5094175;28;20532;-81
2021/08/16 00:21:45;;;;;;;8.23;6.47;;;24.70;1.00;;;;;;5093943;28;20474;-81
2021/08/16 00:24:14;;;;;;;7.43;6.57;;;24.80;52.00;;;;;;5095129;28;20809;-81
2021/08/16 00:26:42;;;;;;;7.10;6.40;;;24.80;1.00;;;;;;5094181;28;20979;-81
2021/08/16 00:29:10;;;;;;;7.67;6.90;;;24.80;1.00;;;;;;5093090;28;20515;-81
2021/08/16 00:31:41;;;;;;;9.43;6.90;;;24.80;17.40;;;;;;5092552;28;20471;-81
2021/08/16 00:34:09;;;;;;;11.43;7.30;;;24.80;99.90;;;;;;5092633;28;20445;-81
2021/08/16 00:36:37;;;;;;;9.70;6.20;;;24.80;74.20;;;;;;5093335;28;20442;-81
2021/08/16 00:39:05;;;;;;;7.50;6.10;;;24.80;99.90;;;;;;5096761;28;20445;-79
2021/08/16 00:41:35;;;;;;;7.63;6.80;;;24.70;99.90;;;;;;5102277;28;20452;-81
2021/08/16 00:44:07;;;;;;;9.77;6.93;;;24.70;99.90;;;;;;5093128;28;20936;-81
2021/08/16 00:46:35;;;;;;;9.87;6.50;;;24.70;99.90;;;;;;5073901;28;20438;-81
2021/08/16 00:49:05;;;;;;;8.17;6.80;;;24.70;99.90;;;;;;5092533;28;20453;-81
2021/08/16 00:51:35;;;;;;;9.20;6.63;;;24.70;99.90;;;;;;5092978;28;20506;-81
2021/08/16 00:54:05;;;;;;;7.20;6.60;;;24.70;88.30;;;;;;5074106;28;20446;-81
2021/08/16 00:56:36;;;;;;;7.63;6.20;;;24.70;99.90;;;;;;5075065;28;20491;-80
2021/08/16 00:59:07;;;;;;;8.63;7.40;;;24.50;99.90;;;;;;5092690;28;20472;-81
2021/08/16 01:01:35;;;;;;;8.20;7.20;;;24.50;99.90;;;;;;5093074;28;20507;-81
2021/08/16 01:04:05;;;;;;;8.77;7.10;;;24.40;1.00;;;;;;5091798;28;20460;-80
2021/08/16 01:06:33;;;;;;;7.47;6.60;;;24.30;1.00;;;;;;5092035;28;20466;-81
2021/08/16 01:09:01;;;;;;;8.60;6.90;;;24.40;1.00;;;;;;5092326;28;20643;-80
2021/08/16 01:11:29;;;;;;;8.27;7.33;;;24.50;1.00;;;;;;5091205;28;21052;-81
2021/08/16 01:13:57;;;;;;;11.53;7.40;;;24.50;99.90;;;;;;5091368;28;20452;-81
2021/08/16 01:16:25;;;;;;;7.33;6.60;;;24.40;1.00;;;;;;5092673;28;20945;-81
2021/08/16 01:18:54;;;;;;;6.40;5.63;;;24.40;1.00;;;;;;5092942;28;20460;-79
2021/08/16 01:21:23;;;;;;;8.83;6.90;;;24.40;1.00;;;;;;5065869;28;20504;-81
2021/08/16 01:23:51;;;;;;;13.13;8.87;;;24.30;1.00;;;;;;5070678;28;20455;-81
2021/08/16 01:26:19;;;;;;;11.30;7.10;;;24.30;1.00;;;;;;5070084;28;20457;-80
2021/08/16 01:28:49;;;;;;;8.90;6.90;;;24.40;99.90;;;;;;5091544;28;20449;-80
2021/08/16 01:31:18;;;;;;;8.00;7.20;;;24.50;99.90;;;;;;5073689;28;20500;-81
2021/08/16 01:33:46;;;;;;;11.17;7.20;;;24.50;1.00;;;;;;5091548;28;20983;-81
2021/08/16 01:36:15;;;;;;;7.00;6.40;;;24.50;1.00;;;;;;5092024;28;20442;-81
2021/08/16 01:38:44;;;;;;;9.43;6.67;;;24.60;1.00;;;;;;5091098;28;20530;-81
2021/08/16 01:41:12;;;;;;;12.13;7.17;;;24.60;1.00;;;;;;5092333;28;20433;-81
2021/08/16 01:43:40;;;;;;;7.47;6.50;;;24.60;1.00;;;;;;5091123;28;20458;-81
2021/08/16 01:46:10;;;;;;;8.13;6.77;;;24.60;1.00;;;;;;5092331;28;20433;-81
2021/08/16 01:48:38;;;;;;;10.70;6.70;;;24.60;1.00;;;;;;5091130;28;20517;-81
2021/08/16 01:51:06;;;;;;;10.47;7.30;;;24.50;1.00;;;;;;5092059;28;20475;-80
2021/08/16 01:53:34;;;;;;;7.40;6.70;;;24.50;1.00;;;;;;5072938;28;20462;-81
2021/08/16 01:56:03;;;;;;;7.37;6.77;;;24.40;1.00;;;;;;5074498;28;20804;-81
2021/08/16 01:58:31;;;;;;;8.97;6.50;;;24.40;99.90;;;;;;5072660;28;20438;-81
2021/08/16 02:00:59;;;;;;;8.03;6.93;;;24.30;99.90;;;;;;5071887;28;20429;-81
2021/08/16 02:03:29;;;;;;;8.77;7.00;;;24.40;1.00;;;;;;5070440;28;20447;-80
2021/08/16 02:05:57;;;;;;;7.60;6.20;;;24.50;1.00;;;;;;5072165;28;20438;-81
2021/08/16 02:08:25;;;;;;;8.47;7.53;;;24.50;1.00;;;;;;5070962;28;20431;-81
2021/08/16 02:10:54;;;;;;;6.10;5.50;;;24.50;1.00;;;;;;5071319;28;20469;-80
2021/08/16 02:13:22;;;;;;;7.43;6.83;;;24.50;99.90;;;;;;5068837;28;20653;-81
2021/08/16 02:15:50;;;;;;;7.20;6.50;;;24.30;99.90;;;;;;5075851;28;20468;-81
2021/08/16 02:18:18;;;;;;;8.63;5.93;;;24.10;1.00;;;;;;5072834;28;20484;-80
2021/08/16 02:20:48;;;;;;;6.53;5.70;;;23.90;1.00;;;;;;5087990;28;20882;-80
2021/08/16 02:23:16;;;;;;;7.07;6.37;;;23.70;1.00;;;;;;5070756;28;20453;-81
2021/08/16 02:25:44;;;;;;;9.63;6.90;;;23.60;1.00;;;;;;5071373;28;20447;-81
2021/08/16 02:28:16;;;;;;;7.23;6.53;;;23.60;5.80;;;;;;5070464;28;20466;-81
2021/08/16 02:30:45;;;;;;;9.70;5.80;;;23.70;1.00;;;;;;5071777;28;20557;-81
2021/08/16 02:33:13;;;;;;;7.20;5.23;;;23.70;1.00;;;;;;5077409;28;20462;-82
2021/08/16 02:35:43;;;;;;;5.90;5.30;;;23.70;99.90;;;;;;5091217;28;20438;-81
2021/08/16 02:38:13;;;;;;;7.23;6.17;;;23.50;25.50;;;;;;5090418;28;20471;-81
2021/08/16 02:40:42;;;;;;;6.40;5.27;;;23.50;1.00;;;;;;5091050;28;20438;-81
2021/08/16 02:43:10;;;;;;;6.30;5.73;;;23.40;52.60;;;;;;5091029;28;20466;-82
2021/08/16 02:45:38;;;;;;;6.03;5.37;;;23.50;99.90;;;;;;5091454;28;20438;-81
2021/08/16 02:48:06;;;;;;;5.90;5.10;;;23.50;29.30;;;;;;5091106;28;20450;-81
2021/08/16 02:50:34;;;;;;;7.37;6.63;;;23.60;1.00;;;;;;5090366;28;20477;-80
2021/08/16 02:53:02;;;;;;;8.23;5.93;;;23.50;17.30;;;;;;5092091;28;20480;-81
2021/08/16 02:55:32;;;;;;;8.40;6.17;;;23.40;99.90;;;;;;5075593;28;20518;-81
2021/08/16 02:58:00;;;;;;;7.03;6.40;;;23.30;99.90;;;;;;5076705;28;20481;-81
2021/08/16 03:00:28;;;;;;;6.03;5.47;;;23.30;99.90;;;;;;5093639;28;20437;-81
2021/08/16 03:02:56;;;;;;;6.77;5.80;;;23.40;99.90;;;;;;5095210;28;20469;-81
2021/08/16 03:05:25;;;;;;;10.63;6.53;;;23.40;1.00;;;;;;5093640;28;20445;-82
2021/08/16 03:07:54;;;;;;;11.10;6.60;;;23.30;47.20;;;;;;5095098;28;20465;-81
2021/08/16 03:10:23;;;;;;;9.63;6.70;;;23.40;1.00;;;;;;5094776;28;20446;-82
2021/08/16 03:12:52;;;;;;;8.20;6.43;;;23.40;99.90;;;;;;5093781;28;20457;-81
2021/08/16 03:15:21;;;;;;;10.87;7.10;;;23.10;1.00;;;;;;5094148;28;20465;-80
2021/08/16 03:17:49;;;;;;;10.87;7.00;;;23.20;1.00;;;;;;5095019;28;20468;-81
2021/08/16 03:20:18;;;;;;;6.70;6.00;;;23.30;99.90;;;;;;5093638;28;20488;-81
2021/08/16 03:22:46;;;;;;;10.40;7.33;;;23.40;1.00;;;;;;5056135;28;20904;-81
2021/08/16 03:25:15;;;;;;;8.97;6.40;;;23.30;99.90;;;;;;5089702;28;21009;-81
2021/08/16 03:27:43;;;;;;;8.00;6.07;;;23.30;26.90;;;;;;5094853;28;20487;-81
2021/08/16 03:30:14;;;;;;;8.13;6.07;;;23.40;92.10;;;;;;5093002;28;20453;-81
2021/08/16 03:32:42;;;;;;;9.73;6.63;;;23.40;99.90;;;;;;5094724;28;21008;-81
2021/08/16 03:35:11;;;;;;;8.10;6.40;;;23.30;99.90;;;;;;5075206;28;20437;-81
2021/08/16 03:37:39;;;;;;;17.20;6.83;;;23.30;85.20;;;;;;5076772;28;20987;-81
2021/08/16 03:40:09;;;;;;;7.93;6.93;;;23.30;1.00;;;;;;5093776;28;20450;-81
2021/08/16 03:42:38;;;;;;;10.67;6.30;;;23.30;99.90;;;;;;5076462;28;20484;-81
2021/08/16 03:45:08;;;;;;;7.37;6.53;;;23.30;99.90;;;;;;5093661;28;20446;-81
2021/08/16 03:47:37;;;;;;;7.40;6.20;;;23.40;1.00;;;;;;5094007;28;20848;-81
2021/08/16 03:50:06;;;;;;;11.43;7.00;;;23.50;99.90;;;;;;5092711;28;20434;-81
2021/08/16 03:52:35;;;;;;;8.03;7.17;;;23.60;1.00;;;;;;5094735;28;20469;-81
2021/08/16 03:55:03;;;;;;;11.93;6.27;;;23.60;1.00;;;;;;5092962;28;20529;-80
2021/08/16 03:57:32;;;;;;;7.70;6.73;;;23.50;99.90;;;;;;5093956;28;20433;-80
2021/08/16 04:00:00;;;;;;;6.83;6.27;;;23.50;99.90;;;;;;5074779;28;20468;-81
2021/08/16 04:02:28;;;;;;;10.83;7.50;;;23.50;16.50;;;;;;5075846;28;20469;-81
2021/08/16 04:04:58;;;;;;;8.47;6.70;;;23.60;1.00;;;;;;5093147;28;20445;-81
2021/08/16 04:07:26;;;;;;;8.47;6.80;;;23.70;99.90;;;;;;5093477;28;20446;-81
2021/08/16 04:09:54;;;;;;;11.00;6.23;;;23.60;99.90;;;;;;5092802;28;20445;-81
2021/08/16 04:12:23;;;;;;;7.63;6.10;;;23.70;99.90;;;;;;5091581;28;20849;-80
2021/08/16 04:14:52;;;;;;;7.37;6.67;;;23.70;68.90;;;;;;5093078;28;20448;-81
2021/08/16 04:17:21;;;;;;;9.90;7.07;;;23.70;72.30;;;;;;5093940;28;20491;-81
2021/08/16 04:19:49;;;;;;;7.67;6.90;;;23.70;97.30;;;;;;5092905;28;20451;-81
2021/08/16 04:22:18;;;;;;;9.17;6.30;;;23.70;6.50;;;;;;5093653;28;20526;-81
2021/08/16 04:24:46;;;;;;;9.70;6.90;;;23.70;97.20;;;;;;5074585;28;20441;-81
2021/08/16 04:27:14;;;;;;;7.40;6.60;;;23.70;1.00;;;;;;5093893;28;20456;-82
2021/08/16 04:29:43;;;;;;;8.40;6.63;;;23.70;1.00;;;;;;5074727;28;20544;-81
2021/08/16 04:32:11;;;;;;;10.80;7.00;;;23.70;1.00;;;;;;5092803;28;20488;-81
2021/08/16 04:34:39;;;;;;;8.50;6.87;;;23.70;1.00;;;;;;5093071;28;20436;-81
2021/08/16 04:37:07;;;;;;;9.97;6.80;;;23.70;1.00;;;;;;5093890;28;20433;-81
2021/08/16 04:39:37;;;;;;;6.87;6.10;;;23.70;1.00;;;;;;5093704;28;20441;-81
2021/08/16 04:42:05;;;;;;;8.07;6.90;;;23.70;1.00;;;;;;5093455;28;20452;-81
2021/08/16 04:44:33;;;;;;;7.90;6.13;;;23.70;99.90;;;;;;5091966;28;20438;-81
2021/08/16 04:47:01;;;;;;;7.77;6.00;;;23.70;99.90;;;;;;5093480;28;20956;-81
2021/08/16 04:49:30;;;;;;;8.33;5.37;;;23.70;99.90;;;;;;5074527;28;20494;-81
2021/08/16 04:51:58;;;;;;;5.63;5.13;;;23.70;1.00;;;;;;5092769;28;20466;-81
2021/08/16 04:54:26;;;;;;;6.80;6.10;;;23.70;1.00;;;;;;5092190;28;20503;-81
2021/08/16 04:56:56;;;;;;;5.80;5.20;;;23.70;1.00;;;;;;5092687;28;20434;-81
2021/08/16 04:59:24;;;;;;;6.50;5.50;;;23.70;1.00;;;;;;5092181;28;20467;-81
2021/08/16 05:01:52;;;;;;;5.00;4.50;;;23.80;1.00;;;;;;5073592;28;20438;-80
2021/08/16 05:04:20;;;;;;;5.50;4.80;;;23.70;1.00;;;;;;5073724;28;20441;-81
2021/08/16 05:06:48;;;;;;;6.63;5.43;;;23.70;99.90;;;;;;5092162;28;20507;-81
2021/08/16 05:09:16;;;;;;;5.43;4.93;;;23.70;99.90;;;;;;5091224;28;20453;-82
2021/08/16 05:11:44;;;;;;;4.93;4.53;;;23.70;99.90;;;;;;5072578;28;20527;-81
2021/08/16 05:14:15;;;;;;;5.97;4.90;;;23.70;99.90;;;;;;5092633;28;20445;-81
2021/08/16 05:16:44;;;;;;;6.37;4.50;;;23.70;99.90;;;;;;5091530;28;20453;-81
2021/08/16 05:19:12;;;;;;;5.50;4.87;;;23.70;99.90;;;;;;5092274;28;21136;-81
2021/08/16 05:21:43;;;;;;;5.63;4.77;;;23.70;99.90;;;;;;5091154;28;20577;-81
2021/08/16 05:24:11;;;;;;;7.07;3.90;;;23.80;99.90;;;;;;5073883;28;20454;-81
2021/08/16 05:26:39;;;;;;;9.07;5.13;;;23.70;99.90;;;;;;5073627;28;20527;-81
2021/08/16 05:29:07;;;;;;;6.00;4.93;;;23.70;99.90;;;;;;5073635;28;20442;-80
2021/08/16 05:31:37;;;;;;;9.43;5.23;;;23.70;99.90;;;;;;5091810;28;20449;-81
2021/08/16 05:34:05;;;;;;;8.60;5.23;;;23.70;99.90;;;;;;5092474;28;20483;-82
2021/08/16 05:36:33;;;;;;;4.90;4.40;;;23.80;99.90;;;;;;5091308;28;20444;-82
2021/08/16 05:39:01;;;;;;;5.43;4.67;;;23.80;99.90;;;;;;5092057;28;20430;-83
2021/08/16 05:41:30;;;;;;;4.83;4.30;;;23.70;99.90;;;;;;5090188;28;20445;-81
2021/08/16 05:43:58;;;;;;;6.27;4.60;;;23.80;72.20;;;;;;5091891;28;20430;-81
2021/08/16 05:46:26;;;;;;;6.50;4.63;;;23.70;99.90;;;;;;5091007;28;20442;-81
2021/08/16 05:48:56;;;;;;;4.37;3.90;;;23.80;99.90;;;;;;5092406;28;20490;-80
2021/08/16 05:51:24;;;;;;;6.17;4.67;;;23.70;47.40;;;;;;5091219;28;20499;-81
2021/08/16 05:53:52;;;;;;;4.73;4.20;;;23.70;65.70;;;;;;5092119;28;20546;-81
2021/08/16 05:56:20;;;;;;;4.20;3.63;;;23.80;44.80;;;;;;5090973;28;20453;-80
2021/08/16 05:58:48;;;;;;;7.10;4.70;;;23.80;21.30;;;;;;5091321;28;20463;-80
2021/08/16 06:01:16;;;;;;;5.20;4.30;;;23.70;50.20;;;;;;5090659;28;20468;-81
2021/08/16 06:03:45;;;;;;;4.20;3.80;;;23.70;4.50;;;;;;5074220;28;20834;-80
2021/08/16 06:06:14;;;;;;;10.43;4.30;;;23.70;4.10;;;;;;5073911;28;20858;-81
2021/08/16 06:08:42;;;;;;;3.93;3.60;;;23.70;4.30;;;;;;5091997;28;20441;-81
2021/08/16 06:11:10;;;;;;;4.67;3.50;;;23.80;1.00;;;;;;5088490;28;20492;-80
2021/08/16 06:13:38;;;;;;;3.60;3.30;;;23.70;1.00;;;;;;5091938;28;20479;-81
2021/08/16 06:16:06;;;;;;;6.53;3.37;;;23.70;1.00;;;;;;5090985;28;20479;-81
2021/08/16 06:18:35;;;;;;;6.97;3.00;;;23.70;1.00;;;;;;5092122;28;20529;-81
2021/08/16 06:21:03;;;;;;;3.80;2.90;;;23.70;1.00;;;;;;5084748;28;20451;-81
2021/08/16 06:23:34;;;;;;;4.03;2.53;;;23.80;1.00;;;;;;5072161;28;20570;-81
2021/08/16 06:26:02;;;;;;;3.40;2.80;;;23.90;1.00;;;;;;5070743;28;20430;-81
2021/08/16 06:28:31;;;;;;;5.00;2.83;;;23.90;1.00;;;;;;5075551;28;20461;-81
2021/08/16 06:30:59;;;;;;;4.03;3.63;;;24.00;1.00;;;;;;5079202;28;20438;-82
2021/08/16 06:33:28;;;;;;;3.00;2.67;;;24.00;1.00;;;;;;5076977;28;20485;-81
2021/08/16 06:35:56;;;;;;;3.30;2.83;;;24.10;1.00;;;;;;5094759;28;20465;-81
2021/08/16 06:38:25;;;;;;;4.60;2.67;;;24.30;1.00;;;;;;5095370;28;20445;-81
2021/08/16 06:40:56;;;;;;;5.30;2.50;;;24.40;1.00;;;;;;5095099;28;20521;-81
2021/08/16 06:43:27;;;;;;;3.63;2.77;;;24.50;1.00;;;;;;5077414;28;20535;-81
2021/08/16 06:45:56;;;;;;;3.00;2.20;;;24.50;1.00;;;;;;5095260;28;20443;-83
2021/08/16 06:48:24;;;;;;;4.20;2.80;;;24.60;99.90;;;;;;5095033;28;20808;-81
2021/08/16 06:50:52;;;;;;;3.20;2.23;;;24.60;99.90;;;;;;5094756;28;20847;-81
2021/08/16 06:53:20;;;;;;;3.67;2.77;;;24.60;99.90;;;;;;5108506;28;21036;-81
2021/08/16 06:55:50;;;;;;;4.60;2.60;;;24.60;99.90;;;;;;5114783;28;20441;-81
2021/08/16 06:58:20;;;;;;;3.00;2.50;;;24.60;99.90;;;;;;5096524;28;20510;-81
2021/08/16 07:00:48;;;;;;;3.40;2.43;;;24.70;99.90;;;;;;5115122;28;20510;-81
2021/08/16 07:03:21;;;;;;;4.00;2.37;;;24.70;99.90;;;;;;5115220;28;20540;-81
2021/08/16 07:05:50;;;;;;;4.27;2.60;;;24.60;99.90;;;;;;5103163;28;20877;-82
2021/08/16 07:08:18;;;;;;;2.70;2.50;;;24.60;99.90;;;;;;5095126;28;20430;-82
2021/08/16 07:10:47;;;;;;;4.27;1.80;;;24.60;99.90;;;;;;5094234;28;20494;-81
2021/08/16 07:13:15;;;;;;;3.57;1.97;;;24.70;99.90;;;;;;5093165;28;20478;-81
2021/08/16 07:15:45;;;;;;;2.97;1.77;;;24.70;99.90;;;;;;5095975;28;20449;-81
2021/08/16 07:18:13;;;;;;;3.17;2.37;;;24.80;99.90;;;;;;5095615;28;20441;-81
2021/08/16 07:20:43;;;;;;;4.13;2.30;;;24.80;99.90;;;;;;5094271;28;20462;-81
2021/08/16 07:23:12;;;;;;;3.83;2.57;;;24.80;99.90;;;;;;5094002;28;21133;-81
2021/08/16 07:25:40;;;;;;;4.17;1.90;;;24.80;99.90;;;;;;5095155;28;20445;-82
2021/08/16 07:28:09;;;;;;;2.57;2.37;;;24.80;99.90;;;;;;5094102;28;20449;-81
2021/08/16 07:30:37;;;;;;;3.03;2.00;;;24.80;99.90;;;;;;5094982;28;20461;-81
2021/08/16 07:33:07;;;;;;;4.50;2.67;;;24.80;99.90;;;;;;5093992;28;20488;-81
2021/08/16 07:35:35;;;;;;;2.10;1.90;;;24.70;99.90;;;;;;5094621;28;20445;-81
2021/08/16 07:38:03;;;;;;;4.53;1.80;;;24.70;99.90;;;;;;5092830;28;20434;-81
2021/08/16 07:40:31;;;;;;;3.40;2.63;;;24.70;99.90;;;;;;5094309;28;20536;-81
2021/08/16 07:43:00;;;;;;;2.30;2.10;;;24.70;99.90;;;;;;5093771;28;20507;-81
2021/08/16 07:45:28;;;;;;;4.07;2.40;;;24.70;99.90;;;;;;5094521;28;20430;-81
2021/08/16 07:47:56;;;;;;;3.60;2.77;;;24.60;99.90;;;;;;5075588;28;20481;-81
2021/08/16 07:50:26;;;;;;;3.00;2.40;;;24.60;99.90;;;;;;5094523;28;21016;-81
2021/08/16 07:52:54;;;;;;;4.30;1.93;;;24.50;99.90;;;;;;5093451;28;20527;-81
2021/08/16 07:55:22;;;;;;;6.80;2.83;;;24.60;99.90;;;;;;5077256;28;20450;-81
2021/08/16 07:57:50;;;;;;;3.93;2.23;;;24.60;99.90;;;;;;5092950;28;20446;-81
2021/08/16 08:00:20;;;;;;;2.90;2.70;;;24.70;99.90;;;;;;5093573;28;20981;-81
2021/08/16 08:02:50;;;;;;;2.90;2.27;;;24.60;99.90;;;;;;5092619;28;20471;-81
2021/08/16 08:05:20;;;;;;;3.60;2.13;;;24.60;99.90;;;;;;5093767;28;20487;-81
2021/08/16 08:07:50;;;;;;;8.57;2.27;;;24.60;99.90;;;;;;5094167;28;20526;-81
2021/08/16 08:10:20;;;;;;;2.53;2.20;;;24.50;99.90;;;;;;5094070;28;21026;-80
2021/08/16 08:12:50;;;;;;;2.43;2.03;;;24.60;99.90;;;;;;5091231;28;20983;-81
2021/08/16 08:15:19;;;;;;;2.10;1.90;;;24.50;99.90;;;;;;5093413;28;20488;-82
2021/08/16 08:17:48;;;;;;;2.83;2.40;;;24.60;99.90;;;;;;5093480;28;20442;-81
2021/08/16 08:20:18;;;;;;;3.00;2.10;;;24.70;99.90;;;;;;5092918;28;20448;-82
2021/08/16 08:22:46;;;;;;;2.43;1.90;;;24.70;99.90;;;;;;5092348;28;20462;-81
2021/08/16 08:25:16;;;;;;;3.43;2.23;;;24.70;99.90;;;;;;5075464;28;20440;-81
2021/08/16 08:27:44;;;;;;;3.03;2.03;;;24.50;99.90;;;;;;5074592;28;20448;-81
2021/08/16 08:30:13;;;;;;;3.63;2.03;;;24.60;99.90;;;;;;5093455;28;20507;-81
2021/08/16 08:32:46;;;;;;;5.13;2.67;;;24.60;99.90;;;;;;5092708;28;20453;-81
2021/08/16 08:35:14;;;;;;;3.60;2.30;;;24.70;99.90;;;;;;5094109;28;20870;-81
2021/08/16 08:37:42;;;;;;;1.93;1.73;;;24.70;99.90;;;;;;5074840;28;20507;-81
2021/08/16 08:40:11;;;;;;;2.30;2.03;;;24.80;99.90;;;;;;5093422;28;20434;-81
2021/08/16 08:42:41;;;;;;;2.90;2.47;;;24.80;99.90;;;;;;5093392;28;20458;-81
2021/08/16 08:45:10;;;;;;;3.93;2.80;;;24.70;99.90;;;;;;5093884;28;20445;-81
2021/08/16 08:47:38;;;;;;;4.50;2.40;;;24.80;99.90;;;;;;5092940;28;20449;-81
2021/08/16 08:50:07;;;;;;;4.83;2.20;;;24.80;99.90;;;;;;5074547;28;21040;-81
2021/08/16 08:52:35;;;;;;;3.37;2.90;;;24.80;99.90;;;;;;5074974;28;20466;-82
2021/08/16 08:55:04;;;;;;;2.60;2.13;;;24.90;99.90;;;;;;5092485;28;20465;-82
2021/08/16 08:57:53;;;;;;;4.60;2.43;;;24.90;99.90;;;;;;5093781;28;20449;-82
2021/08/16 09:00:22;;;;;;;5.33;2.50;;;25.00;99.90;;;;;;5092751;28;20465;-81
2021/08/16 09:03:01;;;;;;;5.20;2.97;;;25.00;99.90;;;;;;5074504;28;20469;-81
2021/08/16 09:05:31;;;;;;;3.07;1.97;;;24.90;99.90;;;;;;5070257;28;20831;-82
2021/08/16 09:08:03;;;;;;;5.27;2.20;;;24.90;99.90;;;;;;5074514;28;20450;-81
2021/08/16 09:10:31;;;;;;;2.70;2.40;;;24.80;99.90;;;;;;5071313;28;20456;-81
2021/08/16 09:13:01;;;;;;;5.43;2.43;;;24.70;99.90;;;;;;5071919;28;20496;-81
2021/08/16 09:15:30;;;;;;;4.80;3.10;;;24.60;99.90;;;;;;5070864;28;20536;-81
2021/08/16 09:18:04;;;;;;;4.03;2.57;;;24.70;99.90;;;;;;5073154;28;20482;-81
2021/08/16 09:20:35;;;;;;;6.90;3.73;;;24.70;99.90;;;;;;5072997;28;20442;-82
2021/08/16 09:23:05;;;;;;;3.70;3.00;;;24.50;99.90;;;;;;5074379;28;20480;-81
2021/08/16 09:25:36;;;;;;;3.37;2.70;;;24.50;99.90;;;;;;5091606;28;20488;-81
2021/08/16 09:28:07;;;;;;;3.40;2.57;;;24.50;99.90;;;;;;5073824;28;20442;-81
2021/08/16 09:30:38;;;;;;;4.10;1.80;;;24.50;99.90;;;;;;5091279;28;20441;-81
2021/08/16 09:33:14;;;;;;;5.70;2.23;;;24.40;99.90;;;;;;5074740;28;20961;-81
2021/08/16 09:35:53;;;;;;;4.87;3.07;;;24.40;99.90;;;;;;5091702;28;20473;-81
2021/08/16 09:38:38;;;;;;;2.70;2.37;;;24.30;99.90;;;;;;5091645;28;20955;-81
2021/08/16 09:41:19;;;;;;;2.87;2.40;;;24.30;99.90;;;;;;5073820;28;20434;-81
2021/08/16 09:43:48;;;;;;;2.60;1.90;;;24.30;99.90;;;;;;5073225;28;20946;-81
2021/08/16 09:46:18;;;;;;;4.30;2.70;;;24.30;99.90;;;;;;5092311;28;20992;-81
2021/08/16 09:48:57;;;;;;;4.37;2.13;;;24.20;99.90;;;;;;5090507;28;20457;-81
2021/08/16 09:51:27;;;;;;;4.30;2.83;;;24.20;99.90;;;;;;5092647;28;20485;-81
2021/08/16 09:53:56;;;;;;;5.30;2.13;;;24.20;99.90;;;;;;5091084;28;20503;-82
2021/08/16 09:56:24;;;;;;;2.73;1.80;;;24.40;99.90;;;;;;5074865;28;20446;-81
2021/08/16 09:58:54;;;;;;;5.60;2.23;;;24.50;99.90;;;;;;5076558;28;20450;-81
2021/08/16 10:01:22;;;;;;;2.07;1.70;;;24.60;99.90;;;;;;5091298;28;20460;-81
2021/08/16 10:03:51;;;;;;;2.90;1.90;;;24.70;99.90;;;;;;5115600;28;20469;-81
2021/08/16 10:06:21;;;;;;;3.13;2.10;;;24.80;99.90;;;;;;5116741;28;20528;-79
2021/08/16 10:08:52;;;;;;;3.93;2.43;;;24.90;99.90;;;;;;5097953;28;20436;-81
2021/08/16 10:11:22;;;;;;;4.10;2.10;;;25.00;99.90;;;;;;5115759;28;20544;-81
2021/08/16 10:13:54;;;;;;;3.67;2.03;;;25.00;99.90;;;;;;5095830;28;20477;-82
2021/08/16 10:16:27;;;;;;;4.03;2.80;;;25.00;99.90;;;;;;5097052;28;20480;-81
2021/08/16 10:19:03;;;;;;;5.50;2.70;;;25.00;99.90;;;;;;5095278;28;20449;-80
2021/08/16 10:21:31;;;;;;;3.23;2.10;;;25.00;99.90;;;;;;5086591;28;20441;-81
2021/08/16 10:24:03;;;;;;;4.83;2.00;;;24.90;99.90;;;;;;5075429;28;20438;-82
2021/08/16 10:26:34;;;;;;;2.40;1.60;;;24.80;99.90;;;;;;5058534;28;21108;-81
2021/08/16 10:29:06;;;;;;;2.70;1.40;;;24.70;99.90;;;;;;5057736;28;20496;-81
2021/08/16 10:31:36;;;;;;;2.83;1.70;;;24.70;99.90;;;;;;5075877;28;20521;-81
2021/08/16 10:34:05;;;;;;;3.53;1.90;;;24.70;99.90;;;;;;5073986;28;20441;-82
2021/08/16 10:36:33;;;;;;;2.90;1.83;;;24.70;99.90;;;;;;5075858;28;20478;-82
2021/08/16 10:39:03;;;;;;;2.50;1.97;;;24.60;99.90;;;;;;5074261;28;20434;-81
2021/08/16 10:41:38;;;;;;;2.50;1.77;;;24.60;99.90;;;;;;5057955;28;20866;-82
2021/08/16 10:44:14;;;;;;;2.87;2.00;;;24.70;99.90;;;;;;5056941;28;20601;-81
2021/08/16 10:46:42;;;;;;;4.07;2.57;;;24.80;99.90;;;;;;5085979;28;20450;-82
2021/08/16 10:49:13;;;;;;;5.33;2.03;;;24.80;99.90;;;;;;5076641;28;20442;-81
2021/08/16 10:51:44;;;;;;;2.80;2.23;;;24.80;99.90;;;;;;5077022;28;20496;-81
2021/08/16 10:54:25;;;;;;;3.80;2.10;;;24.80;99.90;;;;;;5095236;28;20461;-81
2021/08/16 10:56:55;;;;;;;4.30;2.20;;;24.90;99.90;;;;;;5096227;28;20457;-82
2021/08/16 10:59:26;;;;;;;4.50;2.00;;;25.00;99.90;;;;;;5095356;28;20498;-82
2021/08/16 11:01:56;;;;;;;2.60;1.90;;;25.00;99.90;;;;;;5095394;28;20454;-81
2021/08/16 11:04:32;;;;;;;3.43;1.73;;;25.10;99.90;;;;;;5079557;28;20464;-82
2021/08/16 11:07:02;;;;;;;3.17;2.20;;;25.20;99.90;;;;;;5094752;28;20532;-79
2021/08/16 11:09:34;;;;;;;3.80;2.30;;;25.30;99.90;;;;;;5094869;28;20430;-81
2021/08/16 11:12:05;;;;;;;2.50;2.03;;;25.20;99.90;;;;;;5093458;28;20460;-82
2021/08/16 11:14:39;;;;;;;4.70;2.00;;;25.20;99.90;;;;;;5094477;28;20843;-82
2021/08/16 11:17:08;;;;;;;5.07;2.20;;;25.20;99.90;;;;;;5094240;28;20545;-82
2021/08/16 11:19:42;;;;;;;4.70;2.60;;;25.20;99.90;;;;;;5076642;28;20456;-81
2021/08/16 11:22:10;;;;;;;2.70;1.80;;;25.20;99.90;;;;;;5093738;28;20469;-81
2021/08/16 11:24:41;;;;;;;2.77;2.17;;;25.20;99.90;;;;;;5095771;28;20496;-82
2021/08/16 11:27:11;;;;;;;4.70;2.70;;;25.20;99.90;;;;;;5075541;28;20467;-81
2021/08/16 11:29:40;;;;;;;6.00;2.17;;;25.10;99.90;;;;;;5095409;28;20515;-81
2021/08/16 11:32:09;;;;;;;5.13;2.00;;;25.10;99.90;;;;;;5093473;28;21041;-82
2021/08/16 11:34:55;;;;;;;2.87;2.17;;;25.10;99.90;;;;;;5095441;28;20446;-81
2021/08/16 11:37:25;;;;;;;2.90;1.80;;;25.20;99.90;;;;;;5075222;28;20446;-81
2021/08/16 11:39:55;;;;;;;3.63;1.57;;;25.20;99.90;;;;;;5094712;28;20945;-81
2021/08/16 11:42:43;;;;;;;2.93;1.90;;;25.20;99.90;;;;;;5095101;28;20458;-82
2021/08/16 11:45:15;;;;;;;2.20;1.83;;;25.30;99.90;;;;;;5075789;28;20446;-81
2021/08/16 11:47:44;;;;;;;2.47;1.70;;;25.30;99.90;;;;;;5094069;28;20515;-81
2021/08/16 11:50:16;;;;;;;3.10;2.03;;;25.30;99.90;;;;;;5093855;28;20988;-82
2021/08/16 11:52:44;;;;;;;3.83;1.97;;;25.30;99.90;;;;;;5075230;28;20458;-82
2021/08/16 11:55:12;;;;;;;3.33;1.97;;;25.40;99.90;;;;;;5093466;28;20457;-82
2021/08/16 11:57:41;;;;;;;2.80;2.13;;;25.40;99.90;;;;;;5094377;28;20438;-81
2021/08/16 12:00:13;;;;;;;6.07;4.13;;;25.40;99.90;;;;;;5088107;28;20454;-81
2021/08/16 12:02:42;;;;;;;3.57;1.70;;;25.40;99.90;;;;;;5073253;28;20458;-81
2021/08/16 12:05:11;;;;;;;2.70;1.77;;;25.40;99.90;;;;;;5072961;28;20996;-81
2021/08/16 12:07:40;;;;;;;2.33;1.70;;;25.30;99.90;;;;;;5073290;28;20450;-81
2021/08/16 12:10:18;;;;;;;2.70;1.60;;;25.40;99.90;;;;;;5072484;28;20485;-80
2021/08/16 12:12:58;;;;;;;3.80;2.30;;;25.30;99.90;;;;;;5092012;28;20983;-81
2021/08/16 12:15:28;;;;;;;3.10;2.10;;;25.30;99.90;;;;;;5092829;28;20482;-81
2021/08/16 12:18:05;;;;;;;2.60;1.70;;;25.30;99.90;;;;;;5094601;28;20535;-82
2021/08/16 12:20:40;;;;;;;5.37;2.30;;;25.30;99.90;;;;;;5092382;28;20964;-81
2021/08/16 12:23:08;;;;;;;2.37;2.03;;;25.30;99.90;;;;;;5094378;28;20480;-81
2021/08/16 12:25:46;;;;;;;3.00;1.60;;;25.30;99.90;;;;;;5092253;28;20843;-82
2021/08/16 12:28:14;;;;;;;5.13;1.80;;;25.30;99.90;;;;;;5093941;28;20441;-82
2021/08/16 12:30:44;;;;;;;2.27;1.73;;;25.30;99.90;;;;;;5092600;28;20517;-82
2021/08/16 12:33:14;;;;;;;2.33;1.70;;;25.30;99.90;;;;;;5093645;28;20548;-82
2021/08/16 12:35:54;;;;;;;3.33;1.90;;;25.20;99.90;;;;;;5093449;28;20465;-81
2021/08/16 12:38:27;;;;;;;3.37;1.80;;;25.30;99.90;;;;;;5093489;28;20438;-82
2021/08/16 12:41:05;;;;;;;3.93;2.23;;;25.30;99.90;;;;;;5093329;28;20472;-80
2021/08/16 12:43:37;;;;;;;2.23;1.83;;;25.40;99.90;;;;;;5093281;28;20466;-82
2021/08/16 12:46:07;;;;;;;2.03;1.60;;;25.40;99.90;;;;;;5092930;28;20468;-81
2021/08/16 12:48:42;;;;;;;3.53;1.70;;;25.40;99.90;;;;;;5074971;28;20536;-81
2021/08/16 12:51:11;;;;;;;2.40;1.80;;;25.40;99.90;;;;;;5093546;28;20438;-82
2021/08/16 12:53:40;;;;;;;3.43;1.80;;;25.50;99.90;;;;;;5092949;28;20458;-81
2021/08/16 12:56:09;;;;;;;4.53;2.07;;;25.40;99.90;;;;;;5093267;28;20469;-81
2021/08/16 12:58:37;;;;;;;3.03;2.50;;;25.50;99.90;;;;;;5093078;28;20841;-81
2021/08/16 13:01:07;;;;;;;2.53;2.07;;;25.50;99.90;;;;;;5074147;28;20446;-82